Morocco Star — CNA5167 — position and weather

sailwx.info

Track history (hours):
 
Tides and Currents Weather Stations Pressure Air Temp Water Temp Dewpoint Dewpoint Depression Visibility Wind Speed Wind Dir Waves Ship Positions

Morocco Star

Last reported at 2018-Feb-20 19:00 UTC. Time now 2018-Feb-20 19:20 UTC.
Position N 35°54' W 005°31'.

Length 152 m; draft 5 m.

Type: Ship. MMSI: 242579300.

Date/timePositionNaut miles runAvg speedWind from/ knotsBaromVisibWave heightAir tempDewpointWater temp
2018-Feb-20 19:00N 35°54' W 005°31'713.4
2018-Feb-20 18:29N 35°60' W 005°26'814.1
2018-Feb-20 17:56N 36°07' W 005°24'2 1.7
2018-Feb-20 16:35N 36°08' W 005°26'0 0.0
2018-Feb-20 16:31N 36°08' W 005°26'0 0.4
2018-Feb-20 15:59N 36°08' W 005°26'4 7.2
2018-Feb-20 15:30N 36°05' W 005°24'816.0
2018-Feb-20 15:00N 35°58' W 005°27'2 0.6
2018-Feb-20 12:17N 35°57' W 005°29'413.6
2018-Feb-20 12:00N 36°00' W 005°26'4 1.2
2018-Feb-20 08:57N 36°03' W 005°23'12 1.3
2018-Feb-20 00:00N 35°53' W 005°31'511.0
2018-Feb-19 23:30N 35°58' W 005°28'714.7
2018-Feb-19 23:00N 36°04' W 005°24'4 8.4
2018-Feb-19 22:30N 36°08' W 005°26'0 0.1
2018-Feb-19 21:53N 36°08' W 005°26'0 0.0
2018-Feb-19 21:24N 36°08' W 005°26'2 5.3
2018-Feb-19 20:56N 36°07' W 005°24'715.9
2018-Feb-19 20:30N 35°60' W 005°25'5 2.2
2018-Feb-19 18:04N 35°57' W 005°30'115.1
2018-Feb-19 18:00N 35°57' W 005°29'714.3
2018-Feb-19 17:30N 36°03' W 005°24'510.1
2018-Feb-19 17:00N 36°08' W 005°26'0 0.4
2018-Feb-19 16:02N 36°08' W 005°26'0 0.0
2018-Feb-19 15:56N 36°08' W 005°26'1 1.4
2018-Feb-19 15:30N 36°08' W 005°26'5 9.8
2018-Feb-19 15:00N 36°04' W 005°24'815.9
2018-Feb-19 14:30N 35°57' W 005°28'2 0.7
2018-Feb-19 12:10N 35°56' W 005°30'215.0
2018-Feb-19 12:00N 35°58' W 005°28'714.5
2018-Feb-19 11:30N 36°05' W 005°24'4 7.3
2018-Feb-19 10:58N 36°08' W 005°26'0 0.0
2018-Feb-19 10:21N 36°08' W 005°26'0 0.0
2018-Feb-19 10:00N 36°08' W 005°26'0 0.0
2018-Feb-19 09:28N 36°08' W 005°26'2 4.5
2018-Feb-19 08:59N 36°07' W 005°24'816.6
2018-Feb-19 08:30N 35°59' W 005°25'  
2018-Feb-15 23:23N 36°08' W 005°26'0 0.1
2018-Feb-15 22:53N 36°08' W 005°26'0 0.0
2018-Feb-15 22:29N 36°08' W 005°26'0 0.3
2018-Feb-15 22:00N 36°08' W 005°26'4 7.6
2018-Feb-15 21:31N 36°05' W 005°24'816.2
2018-Feb-15 21:01N 35°57' W 005°28'1 0.3
2018-Feb-15 18:18N 35°58' W 005°29'414.2
2018-Feb-15 18:00N 36°00' W 005°25'714.6
2018-Feb-15 17:30N 36°08' W 005°24'5 2.1
2018-Feb-15 15:09N 36°03' W 005°23'317.1
2018-Feb-15 14:59N 36°00' W 005°24'5 1.9
2018-Feb-15 12:03N 35°57' W 005°29'115.2
2018-Feb-15 12:01N 35°58' W 005°29'714.3
2018-Feb-15 11:30N 36°04' W 005°24'4 2.1
2018-Feb-15 09:23N 36°08' W 005°26'4 7.9
2018-Feb-15 08:50N 36°04' W 005°23'617.5
2018-Feb-15 08:30N 35°59' W 005°26'4 0.5
2018-Feb-15 00:43N 35°56' W 005°30'315.3
2018-Feb-15 00:30N 35°59' W 005°28'714.9
2018-Feb-15 00:00N 36°06' W 005°24'3 2.1
2018-Feb-14 22:38N 36°08' W 005°26'0 0.0
2018-Feb-14 22:29N 36°08' W 005°26'2 3.9
2018-Feb-14 22:00N 36°09' W 005°24'815.3
2018-Feb-14 21:30N 36°01' W 005°24'6 2.2
2018-Feb-14 18:36N 35°56' W 005°30'114.0
2018-Feb-14 18:31N 35°58' W 005°29'714.5
2018-Feb-14 18:00N 36°04' W 005°24'4 8.9
2018-Feb-14 17:31N 36°08' W 005°26'0 0.1
2018-Feb-14 16:11N 36°08' W 005°26'0 1.4
2018-Feb-14 16:00N 36°08' W 005°26'5 9.8
2018-Feb-14 15:30N 36°03' W 005°24'816.8
2018-Feb-14 15:01N 35°56' W 005°29'1 0.4
2018-Feb-14 12:17N 35°56' W 005°30'414.9
2018-Feb-14 12:00N 35°60' W 005°27'714.5
2018-Feb-14 11:30N 36°07' W 005°24'2 4.9
2018-Feb-14 11:00N 36°08' W 005°26'0 0.0
2018-Feb-14 10:00N 36°08' W 005°26'3 5.5
2018-Feb-14 09:25N 36°06' W 005°23'716.3
2018-Feb-14 09:00N 35°59' W 005°25'5 2.2
2018-Feb-14 06:40N 35°56' W 005°30'213.1
2018-Feb-14 06:30N 35°58' W 005°29'612.7
2018-Feb-14 06:00N 36°03' W 005°24'510.6
2018-Feb-14 05:31N 36°08' W 005°26'0 0.7
2018-Feb-14 04:55N 36°08' W 005°26'1 2.4
2018-Feb-14 04:31N 36°09' W 005°26'612.7
2018-Feb-14 04:00N 36°03' W 005°24'6 2.7
2018-Feb-14 01:38N 35°58' W 005°29'214.5
2018-Feb-14 01:30N 35°59' W 005°28'1012.2
2018-Feb-14 00:43N 36°09' W 005°26'1 4.6
2018-Feb-14 00:30N 36°08' W 005°26'0 0.0
2018-Feb-13 23:07N 36°08' W 005°26'0 0.0
2018-Feb-13 22:55N 36°08' W 005°26'1 2.1
2018-Feb-13 22:30N 36°09' W 005°26'612.2
2018-Feb-13 22:01N 36°03' W 005°23'8 2.5
2018-Feb-13 18:45N 35°57' W 005°30'313.8
2018-Feb-13 18:30N 35°59' W 005°27'914.5
2018-Feb-13 17:53N 36°08' W 005°24'1 0.8
2018-Feb-13 16:11N 36°08' W 005°26'1 6.8
2018-Feb-13 16:00N 36°08' W 005°25'713.9
2018-Feb-13 15:31N 36°02' W 005°24'6 2.2
2018-Feb-13 12:39N 35°57' W 005°30'215.0
2018-Feb-13 12:29N 35°59' W 005°28'713.5
2018-Feb-13 12:00N 36°04' W 005°24'4 1.9
2018-Feb-13 09:54N 36°08' W 005°26'1 2.0
2018-Feb-13 09:30N 36°09' W 005°26'611.4
2018-Feb-13 09:00N 36°03' W 005°23'9 1.2
2018-Feb-13 01:21N 35°56' W 005°30'514.8
2018-Feb-13 01:00N 36°00' W 005°27'714.5
2018-Feb-13 00:30N 36°07' W 005°24'2 4.0
2018-Feb-13 00:00N 36°08' W 005°26'0 0.0
2018-Feb-12 23:30N 36°08' W 005°26'0 0.0
2018-Feb-12 23:00N 36°08' W 005°26'4 7.7
2018-Feb-12 22:31N 36°05' W 005°23'816.0
2018-Feb-12 22:00N 35°57' W 005°27'2 0.7
2018-Feb-12 18:47N 35°57' W 005°30'413.8
2018-Feb-12 18:30N 35°60' W 005°27'714.2
2018-Feb-12 18:00N 36°06' W 005°24'3 1.5
2018-Feb-12 16:11N 36°08' W 005°26'1 2.7
2018-Feb-12 15:58N 36°09' W 005°26'5 9.0
2018-Feb-12 15:28N 36°05' W 005°23'715.7
2018-Feb-12 15:00N 35°58' W 005°27'3 1.0
2018-Feb-12 12:13N 35°56' W 005°30'314.4
2018-Feb-12 12:01N 35°59' W 005°28'713.9
2018-Feb-12 11:31N 36°05' W 005°23'4 2.5
2018-Feb-12 09:55N 36°08' W 005°26'2 3.5
2018-Feb-12 09:30N 36°09' W 005°25'611.4
2018-Feb-12 09:00N 36°04' W 005°23'917.1
2018-Feb-12 08:30N 35°57' W 005°28'2 0.3
2018-Feb-12 01:22N 35°57' W 005°31'514.2
2018-Feb-12 01:00N 36°00' W 005°26'714.2
2018-Feb-12 00:30N 36°07' W 005°24'2 3.4
2018-Feb-11 23:53N 36°08' W 005°26'0 0.0
2018-Feb-11 23:29N 36°08' W 005°26'0 0.4
2018-Feb-11 23:00N 36°08' W 005°26'2 4.3
2018-Feb-11 22:28N 36°07' W 005°24'716.1
2018-Feb-11 22:00N 35°60' W 005°25'5 1.9
2018-Feb-11 19:18N 35°56' W 005°30'412.8
2018-Feb-11 19:00N 35°59' W 005°27'612.9
2018-Feb-11 18:31N 36°05' W 005°23'4 7.5
2018-Feb-11 18:00N 36°08' W 005°26'0 0.0
2018-Feb-11 16:53N 36°08' W 005°26'3 5.8
2018-Feb-11 16:26N 36°07' W 005°23'715.9
2018-Feb-11 16:00N 35°60' W 005°24'6 2.0
2018-Feb-11 13:10N 35°57' W 005°30'214.5
2018-Feb-11 13:00N 35°59' W 005°28'713.7
2018-Feb-11 12:30N 36°04' W 005°24'4 8.7
2018-Feb-11 12:00N 36°08' W 005°26'0 0.1
2018-Feb-11 10:28N 36°08' W 005°26'2 3.6
2018-Feb-11 10:00N 36°09' W 005°24'714.5
2018-Feb-11 09:30N 36°02' W 005°23'8 2.3
2018-Feb-11 06:04N 35°56' W 005°30'114.8
2018-Feb-11 05:58N 35°58' W 005°30'612.1
2018-Feb-11 05:30N 36°02' W 005°25'713.9
2018-Feb-11 04:59N 36°09' W 005°25'1 1.5
2018-Feb-11 04:14N 36°08' W 005°26'0 0.0
2018-Feb-11 04:00N 36°08' W 005°26'3 5.1
2018-Feb-11 03:30N 36°07' W 005°24'816.8
2018-Feb-11 03:00N 35°58' W 005°26'3 1.5
2018-Feb-11 00:42N 35°57' W 005°30'313.7
2018-Feb-11 00:30N 35°59' W 005°28'714.3
2018-Feb-11 00:01N 36°05' W 005°24'4 1.7
2018-Feb-10 21:48N 36°08' W 005°26'4 7.5
2018-Feb-10 21:18N 36°05' W 005°23'516.7
2018-Feb-10 20:58N 35°60' W 005°25'  
Track history (hours):
 
Tides and Currents Weather Stations Pressure Air Temp Water Temp Dewpoint Dewpoint Depression Visibility Wind Speed Wind Dir Waves Ship Positions

Morocco Star

Last reported at 2018-Feb-20 19:00 UTC. Time now 2018-Feb-20 19:20 UTC.
Position N 35°54' W 005°31'.

Length 152 m; draft 5 m.

Type: Ship. MMSI: 242579300.

Date/timePositionNaut miles runAvg speedWind from/ knotsBaromVisibWave heightAir tempDewpointWater temp
2018-Feb-20 19:00N 35°54' W 005°31'713.4
2018-Feb-20 18:29N 35°60' W 005°26'814.1
2018-Feb-20 17:56N 36°07' W 005°24'2 1.7
2018-Feb-20 16:35N 36°08' W 005°26'0 0.0
2018-Feb-20 16:31N 36°08' W 005°26'0 0.4
2018-Feb-20 15:59N 36°08' W 005°26'4 7.2
2018-Feb-20 15:30N 36°05' W 005°24'816.0
2018-Feb-20 15:00N 35°58' W 005°27'2 0.6
2018-Feb-20 12:17N 35°57' W 005°29'413.6
2018-Feb-20 12:00N 36°00' W 005°26'4 1.2
2018-Feb-20 08:57N 36°03' W 005°23'12 1.3
2018-Feb-20 00:00N 35°53' W 005°31'511.0
2018-Feb-19 23:30N 35°58' W 005°28'714.7
2018-Feb-19 23:00N 36°04' W 005°24'4 8.4
2018-Feb-19 22:30N 36°08' W 005°26'0 0.1
2018-Feb-19 21:53N 36°08' W 005°26'0 0.0
2018-Feb-19 21:24N 36°08' W 005°26'2 5.3
2018-Feb-19 20:56N 36°07' W 005°24'715.9
2018-Feb-19 20:30N 35°60' W 005°25'5 2.2
2018-Feb-19 18:04N 35°57' W 005°30'115.1
2018-Feb-19 18:00N 35°57' W 005°29'714.3
2018-Feb-19 17:30N 36°03' W 005°24'510.1
2018-Feb-19 17:00N 36°08' W 005°26'0 0.4
2018-Feb-19 16:02N 36°08' W 005°26'0 0.0
2018-Feb-19 15:56N 36°08' W 005°26'1 1.4
2018-Feb-19 15:30N 36°08' W 005°26'5 9.8
2018-Feb-19 15:00N 36°04' W 005°24'815.9
2018-Feb-19 14:30N 35°57' W 005°28'2 0.7
2018-Feb-19 12:10N 35°56' W 005°30'215.0
2018-Feb-19 12:00N 35°58' W 005°28'714.5
2018-Feb-19 11:30N 36°05' W 005°24'4 7.3
2018-Feb-19 10:58N 36°08' W 005°26'0 0.0
2018-Feb-19 10:21N 36°08' W 005°26'0 0.0
2018-Feb-19 10:00N 36°08' W 005°26'0 0.0
2018-Feb-19 09:28N 36°08' W 005°26'2 4.5
2018-Feb-19 08:59N 36°07' W 005°24'816.6
2018-Feb-19 08:30N 35°59' W 005°25'  
2018-Feb-15 23:23N 36°08' W 005°26'0 0.1
2018-Feb-15 22:53N 36°08' W 005°26'0 0.0
2018-Feb-15 22:29N 36°08' W 005°26'0 0.3
2018-Feb-15 22:00N 36°08' W 005°26'4 7.6
2018-Feb-15 21:31N 36°05' W 005°24'816.2
2018-Feb-15 21:01N 35°57' W 005°28'1 0.3
2018-Feb-15 18:18N 35°58' W 005°29'414.2
2018-Feb-15 18:00N 36°00' W 005°25'714.6
2018-Feb-15 17:30N 36°08' W 005°24'5 2.1
2018-Feb-15 15:09N 36°03' W 005°23'317.1
2018-Feb-15 14:59N 36°00' W 005°24'5 1.9
2018-Feb-15 12:03N 35°57' W 005°29'115.2
2018-Feb-15 12:01N 35°58' W 005°29'714.3
2018-Feb-15 11:30N 36°04' W 005°24'4 2.1
2018-Feb-15 09:23N 36°08' W 005°26'4 7.9
2018-Feb-15 08:50N 36°04' W 005°23'617.5
2018-Feb-15 08:30N 35°59' W 005°26'4 0.5
2018-Feb-15 00:43N 35°56' W 005°30'315.3
2018-Feb-15 00:30N 35°59' W 005°28'714.9
2018-Feb-15 00:00N 36°06' W 005°24'3 2.1
2018-Feb-14 22:38N 36°08' W 005°26'0 0.0
2018-Feb-14 22:29N 36°08' W 005°26'2 3.9
2018-Feb-14 22:00N 36°09' W 005°24'815.3
2018-Feb-14 21:30N 36°01' W 005°24'6 2.2
2018-Feb-14 18:36N 35°56' W 005°30'114.0
2018-Feb-14 18:31N 35°58' W 005°29'714.5
2018-Feb-14 18:00N 36°04' W 005°24'4 8.9
2018-Feb-14 17:31N 36°08' W 005°26'0 0.1
2018-Feb-14 16:11N 36°08' W 005°26'0 1.4
2018-Feb-14 16:00N 36°08' W 005°26'5 9.8
2018-Feb-14 15:30N 36°03' W 005°24'816.8
2018-Feb-14 15:01N 35°56' W 005°29'1 0.4
2018-Feb-14 12:17N 35°56' W 005°30'414.9
2018-Feb-14 12:00N 35°60' W 005°27'714.5
2018-Feb-14 11:30N 36°07' W 005°24'2 4.9
2018-Feb-14 11:00N 36°08' W 005°26'0 0.0
2018-Feb-14 10:00N 36°08' W 005°26'3 5.5
2018-Feb-14 09:25N 36°06' W 005°23'716.3
2018-Feb-14 09:00N 35°59' W 005°25'5 2.2
2018-Feb-14 06:40N 35°56' W 005°30'213.1
2018-Feb-14 06:30N 35°58' W 005°29'612.7
2018-Feb-14 06:00N 36°03' W 005°24'510.6
2018-Feb-14 05:31N 36°08' W 005°26'0 0.7
2018-Feb-14 04:55N 36°08' W 005°26'1 2.4
2018-Feb-14 04:31N 36°09' W 005°26'612.7
2018-Feb-14 04:00N 36°03' W 005°24'6 2.7
2018-Feb-14 01:38N 35°58' W 005°29'214.5
2018-Feb-14 01:30N 35°59' W 005°28'1012.2
2018-Feb-14 00:43N 36°09' W 005°26'1 4.6
2018-Feb-14 00:30N 36°08' W 005°26'0 0.0
2018-Feb-13 23:07N 36°08' W 005°26'0 0.0
2018-Feb-13 22:55N 36°08' W 005°26'1 2.1
2018-Feb-13 22:30N 36°09' W 005°26'612.2
2018-Feb-13 22:01N 36°03' W 005°23'8 2.5
2018-Feb-13 18:45N 35°57' W 005°30'313.8
2018-Feb-13 18:30N 35°59' W 005°27'914.5
2018-Feb-13 17:53N 36°08' W 005°24'1 0.8
2018-Feb-13 16:11N 36°08' W 005°26'1 6.8
2018-Feb-13 16:00N 36°08' W 005°25'713.9
2018-Feb-13 15:31N 36°02' W 005°24'6 2.2
2018-Feb-13 12:39N 35°57' W 005°30'215.0
2018-Feb-13 12:29N 35°59' W 005°28'713.5
2018-Feb-13 12:00N 36°04' W 005°24'4 1.9
2018-Feb-13 09:54N 36°08' W 005°26'1 2.0
2018-Feb-13 09:30N 36°09' W 005°26'611.4
2018-Feb-13 09:00N 36°03' W 005°23'9 1.2
2018-Feb-13 01:21N 35°56' W 005°30'514.8
2018-Feb-13 01:00N 36°00' W 005°27'714.5
2018-Feb-13 00:30N 36°07' W 005°24'2 4.0
2018-Feb-13 00:00N 36°08' W 005°26'0 0.0
2018-Feb-12 23:30N 36°08' W 005°26'0 0.0
2018-Feb-12 23:00N 36°08' W 005°26'4 7.7
2018-Feb-12 22:31N 36°05' W 005°23'816.0
2018-Feb-12 22:00N 35°57' W 005°27'2 0.7
2018-Feb-12 18:47N 35°57' W 005°30'413.8
2018-Feb-12 18:30N 35°60' W 005°27'714.2
2018-Feb-12 18:00N 36°06' W 005°24'3 1.5
2018-Feb-12 16:11N 36°08' W 005°26'1 2.7
2018-Feb-12 15:58N 36°09' W 005°26'5 9.0
2018-Feb-12 15:28N 36°05' W 005°23'715.7
2018-Feb-12 15:00N 35°58' W 005°27'3 1.0
2018-Feb-12 12:13N 35°56' W 005°30'314.4
2018-Feb-12 12:01N 35°59' W 005°28'713.9
2018-Feb-12 11:31N 36°05' W 005°23'4 2.5
2018-Feb-12 09:55N 36°08' W 005°26'2 3.5
2018-Feb-12 09:30N 36°09' W 005°25'611.4
2018-Feb-12 09:00N 36°04' W 005°23'917.1
2018-Feb-12 08:30N 35°57' W 005°28'2 0.3
2018-Feb-12 01:22N 35°57' W 005°31'514.2
2018-Feb-12 01:00N 36°00' W 005°26'714.2
2018-Feb-12 00:30N 36°07' W 005°24'2 3.4
2018-Feb-11 23:53N 36°08' W 005°26'0 0.0
2018-Feb-11 23:29N 36°08' W 005°26'0 0.4
2018-Feb-11 23:00N 36°08' W 005°26'2 4.3
2018-Feb-11 22:28N 36°07' W 005°24'716.1
2018-Feb-11 22:00N 35°60' W 005°25'5 1.9
2018-Feb-11 19:18N 35°56' W 005°30'412.8
2018-Feb-11 19:00N 35°59' W 005°27'612.9
2018-Feb-11 18:31N 36°05' W 005°23'4 7.5
2018-Feb-11 18:00N 36°08' W 005°26'0 0.0
2018-Feb-11 16:53N 36°08' W 005°26'3 5.8
2018-Feb-11 16:26N 36°07' W 005°23'715.9
2018-Feb-11 16:00N 35°60' W 005°24'6 2.0
2018-Feb-11 13:10N 35°57' W 005°30'214.5
2018-Feb-11 13:00N 35°59' W 005°28'713.7
2018-Feb-11 12:30N 36°04' W 005°24'4 8.7
2018-Feb-11 12:00N 36°08' W 005°26'0 0.1
2018-Feb-11 10:28N 36°08' W 005°26'2 3.6
2018-Feb-11 10:00N 36°09' W 005°24'714.5
2018-Feb-11 09:30N 36°02' W 005°23'8 2.3
2018-Feb-11 06:04N 35°56' W 005°30'114.8
2018-Feb-11 05:58N 35°58' W 005°30'612.1
2018-Feb-11 05:30N 36°02' W 005°25'713.9
2018-Feb-11 04:59N 36°09' W 005°25'1 1.5
2018-Feb-11 04:14N 36°08' W 005°26'0 0.0
2018-Feb-11 04:00N 36°08' W 005°26'3 5.1
2018-Feb-11 03:30N 36°07' W 005°24'816.8
2018-Feb-11 03:00N 35°58' W 005°26'3 1.5
2018-Feb-11 00:42N 35°57' W 005°30'313.7
2018-Feb-11 00:30N 35°59' W 005°28'714.3
2018-Feb-11 00:01N 36°05' W 005°24'4 1.7
2018-Feb-10 21:48N 36°08' W 005°26'4 7.5
2018-Feb-10 21:18N 36°05' W 005°23'516.7
2018-Feb-10 20:58N 35°60' W 005°25'  

Dump ship's entire track history